ΕΜΥ, Εθνική Μετεωρολογική Υπηρεσία - Δελτία Καιρού, Προγνώσεις

ΑΕΡΟΝΑΥΤΙΛΙΑ

GREEK AIRPORTS CODES

LGTP 131300Z 32006KT 310V030 9999 FEW025 SCT030 18/M04 Q1018 RMK FEW080=

EUROPEAN AIRPORTS CODES

LFPO 131300Z 06008KT 010V120 CAVOK 10/M01 Q1032 NOSIG=